Time;durP1;ratioP1;P1;durP2;ratioP2;P2;SDS_P1;SDS_P2;PMS_P1;PMS_P2;Temp;Humidity;BMP_temperature;BMP_pressure;BME280_temperature;BME280_humidity;BME280_pressure;Samples;Min_cycle;Max_cycle;Signal;HPM_P1;HPM_P2
2022/11/24 00:00:32;;;;;;;12.70;7.70;;;;;;;8.04;100.00;99448.53;5073339;28;20051;-69
2022/11/24 00:02:59;;;;;;;20.75;8.25;;;;;;;8.09;100.00;99447.81;5070844;28;20516;-72
2022/11/24 00:05:25;;;;;;;15.68;8.55;;;;;;;8.41;100.00;99489.06;5073988;28;20082;-72
2022/11/24 00:07:51;;;;;;;20.40;7.72;;;;;;;8.46;100.00;99481.53;5093739;28;20619;-72
2022/11/24 00:10:16;;;;;;;35.47;8.55;;;;;;;8.50;100.00;99480.78;5093842;28;20024;-72
2022/11/24 00:12:42;;;;;;;13.65;7.35;;;;;;;8.57;100.00;99498.16;5093279;28;20028;-72
2022/11/24 00:15:07;;;;;;;27.80;8.00;;;;;;;8.65;100.00;99503.53;5073469;28;20032;-72
2022/11/24 00:17:33;;;;;;;47.38;8.13;;;;;;;8.61;100.00;99503.38;5073251;28;20479;-72
2022/11/24 00:19:58;;;;;;;23.80;8.65;;;;;;;8.69;100.00;99507.06;5073257;28;20502;-72
2022/11/24 00:22:24;;;;;;;30.58;7.45;;;;;;;8.71;100.00;99501.13;5073369;28;20032;-72
2022/11/24 00:24:49;;;;;;;33.28;8.00;;;;;;;8.57;100.00;99513.59;5073280;28;20040;-71
2022/11/24 00:27:15;;;;;;;28.77;8.05;;;;;;;8.60;100.00;99510.25;5073188;28;20052;-72
2022/11/24 00:29:40;;;;;;;47.15;8.93;;;;;;;8.61;100.00;99509.41;5072966;28;20029;-72
2022/11/24 00:32:06;;;;;;;47.72;8.50;;;;;;;8.58;100.00;99510.19;5073347;28;20113;-72
2022/11/24 00:34:32;;;;;;;22.02;8.23;;;;;;;8.64;100.00;99511.19;5073136;28;20028;-72
2022/11/24 00:36:57;;;;;;;43.40;8.80;;;;;;;8.38;100.00;99506.13;5073004;28;20032;-72
2022/11/24 00:39:23;;;;;;;42.25;9.02;;;;;;;8.43;100.00;99501.97;5073253;28;20036;-72
2022/11/24 00:41:48;;;;;;;46.70;18.27;;;;;;;8.45;100.00;99513.19;5072978;28;20043;-72
2022/11/24 00:44:15;;;;;;;49.05;15.90;;;;;;;8.49;100.00;99504.75;5072505;28;20040;-72
2022/11/24 00:46:40;;;;;;;38.45;19.55;;;;;;;8.56;100.00;99495.50;5072880;28;20514;-71
2022/11/24 00:49:06;;;;;;;46.42;13.27;;;;;;;8.65;100.00;99500.94;5072887;28;20062;-72
2022/11/24 00:51:32;;;;;;;44.13;14.30;;;;;;;8.66;100.00;99507.84;5072608;28;20115;-71
2022/11/24 00:53:58;;;;;;;23.35;11.15;;;;;;;8.65;100.00;99516.38;5072575;28;20522;-71
2022/11/24 00:56:25;;;;;;;25.52;11.63;;;;;;;8.70;100.00;99504.53;5072658;28;20104;-71
2022/11/24 00:58:51;;;;;;;38.03;13.60;;;;;;;8.77;100.00;99509.84;5072811;28;20067;-72
2022/11/24 01:01:23;;;;;;;36.25;17.48;;;;;;;8.90;100.00;99511.94;5037023;28;20485;-72
2022/11/24 01:03:49;;;;;;;40.83;13.20;;;;;;;8.94;100.00;99513.75;5072514;28;20033;-72
2022/11/24 01:06:23;;;;;;;34.80;11.15;;;;;;;8.97;100.00;99518.13;5054571;28;20051;-72
2022/11/24 01:08:50;;;;;;;16.67;7.85;;;;;;;8.61;100.00;99493.09;5072305;28;20074;-74
2022/11/24 01:11:21;;;;;;;16.42;8.10;;;;;;;8.61;100.00;99518.81;5072306;28;20027;-72
2022/11/24 01:13:50;;;;;;;41.08;9.60;;;;;;;8.55;100.00;99509.22;5072587;28;20079;-72
2022/11/24 01:16:23;;;;;;;45.07;9.93;;;;;;;8.73;100.00;99502.06;5072325;28;20040;-72
2022/11/24 01:18:49;;;;;;;49.35;9.98;;;;;;;8.79;100.00;99501.34;5072221;28;20028;-72
2022/11/24 01:21:15;;;;;;;42.00;8.82;;;;;;;8.78;100.00;99502.16;5072141;28;20033;-72
2022/11/24 01:23:41;;;;;;;18.70;8.52;;;;;;;8.62;100.00;99477.69;5072056;28;20042;-72
2022/11/24 01:26:08;;;;;;;38.47;9.18;;;;;;;8.86;100.00;99505.84;5071786;28;20548;-72
2022/11/24 01:28:34;;;;;;;30.15;8.77;;;;;;;8.82;100.00;99493.72;5053904;28;20413;-71
2022/11/24 01:31:01;;;;;;;31.73;9.45;;;;;;;8.81;100.00;99489.41;5072285;28;20119;-72
2022/11/24 01:33:27;;;;;;;34.33;8.23;;;;;;;8.87;100.00;99501.53;5054095;28;20075;-72
2022/11/24 01:35:53;;;;;;;28.90;8.75;;;;;;;8.67;100.00;99488.13;5071923;28;20036;-72
2022/11/24 01:38:19;;;;;;;47.65;10.57;;;;;;;8.58;100.00;99473.28;5071692;28;20028;-72
2022/11/24 01:40:44;;;;;;;47.28;9.80;;;;;;;8.78;100.00;99494.44;5072294;28;20035;-72
2022/11/24 01:43:18;;;;;;;27.05;8.40;;;;;;;8.79;100.00;99485.91;5071962;28;20111;-72
2022/11/24 01:45:44;;;;;;;25.73;9.40;;;;;;;8.65;100.00;99484.63;5071780;28;20032;-72
2022/11/24 01:48:26;;;;;;;37.80;9.48;;;;;;;8.54;100.00;99482.63;5070981;28;20063;-72
2022/11/24 01:51:03;;;;;;;110.82;11.50;;;;;;;8.41;100.00;99455.63;5071683;28;20032;-72
2022/11/24 01:53:29;;;;;;;85.82;11.45;;;;;;;8.76;100.00;99484.94;5071727;28;20031;-72
2022/11/24 01:55:55;;;;;;;37.55;8.80;;;;;;;8.65;100.00;99480.38;5071429;28;20028;-72
2022/11/24 01:58:24;;;;;;;93.43;11.18;;;;;;;8.60;100.00;99492.22;5053640;28;20032;-72
2022/11/24 02:00:51;;;;;;;52.90;10.60;;;;;;;8.57;100.00;99485.28;5071450;28;20028;-74
2022/11/24 02:03:21;;;;;;;65.18;12.73;;;;;;;8.55;100.00;99478.38;5053186;28;20501;-75
2022/11/24 02:05:53;;;;;;;84.20;11.57;;;;;;;8.65;100.00;99479.47;5071555;28;20115;-73
2022/11/24 02:08:31;;;;;;;63.45;10.95;;;;;;;8.67;100.00;99472.69;5071233;28;20774;-74
2022/11/24 02:10:59;;;;;;;42.75;10.55;;;;;;;8.77;100.00;99484.09;5071101;28;20020;-73
2022/11/24 02:16:02;;;;;;;56.95;9.52;;;;;;;8.53;100.00;99465.44;5125454;22;20079;-73
2022/11/24 02:18:28;;;;;;;107.07;13.48;;;;;;;8.84;100.00;99486.03;5071769;28;20398;-73
2022/11/24 02:20:54;;;;;;;103.80;11.75;;;;;;;8.72;100.00;99465.97;5071698;28;20040;-73
2022/11/24 02:23:43;;;;;;;85.57;10.70;;;;;;;8.86;100.00;99479.22;5071853;28;20029;-74
2022/11/24 02:26:28;;;;;;;90.70;11.05;;;;;;;8.86;100.00;99479.22;5071819;28;20031;-74
2022/11/24 02:28:53;;;;;;;79.82;11.80;;;;;;;8.54;100.00;99451.75;5071728;28;20028;-73
2022/11/24 02:31:19;;;;;;;65.03;11.63;;;;;;;8.70;100.00;99462.50;5071663;28;20024;-73
2022/11/24 02:33:44;;;;;;;72.80;12.93;;;;;;;8.78;100.00;99481.56;5071885;28;20025;-74
2022/11/24 02:38:40;;;;;;;52.13;12.82;;;;;;;8.56;100.00;99478.41;5048519;28;20061;-74
2022/11/24 02:41:10;;;;;;;42.13;12.98;;;;;;;8.32;100.00;99455.34;5050833;28;20039;-74
2022/11/24 02:43:42;;;;;;;33.88;12.63;;;;;;;8.47;100.00;99483.25;5051226;28;20119;-74
2022/11/24 02:46:09;;;;;;;30.38;12.20;;;;;;;8.09;100.00;99452.13;5051049;28;20443;-73
2022/11/24 02:48:35;;;;;;;29.35;12.82;;;;;;;8.29;100.00;99488.72;5051105;28;20024;-73
2022/11/24 02:51:01;;;;;;;30.50;12.10;;;;;;;8.46;100.00;99494.41;5051086;28;20025;-73
2022/11/24 02:53:26;;;;;;;25.63;12.55;;;;;;;8.45;100.00;99484.91;5051018;28;20043;-74
2022/11/24 02:55:52;;;;;;;26.15;12.25;;;;;;;8.52;100.00;99496.25;5051222;28;20403;-73
2022/11/24 02:58:17;;;;;;;29.40;12.52;;;;;;;8.52;100.00;99499.72;5050567;28;20406;-74
2022/11/24 03:00:43;;;;;;;27.48;11.90;;;;;;;8.40;100.00;99476.19;5050410;28;20457;-74
2022/11/24 03:03:08;;;;;;;24.45;12.32;;;;;;;8.42;100.00;99488.25;5050911;28;20024;-74
2022/11/24 03:05:34;;;;;;;26.77;12.48;;;;;;;8.51;100.00;99492.84;5051211;28;20104;-74
2022/11/24 03:07:59;;;;;;;29.95;13.90;;;;;;;8.34;100.00;99448.56;5050677;28;20509;-73
2022/11/24 03:10:24;;;;;;;23.35;12.23;;;;;;;8.32;100.00;99462.22;5051055;28;20542;-74
2022/11/24 03:12:50;;;;;;;26.13;13.02;;;;;;;8.48;100.00;99495.28;5050738;28;20078;-74
2022/11/24 03:15:15;;;;;;;27.42;12.73;;;;;;;8.48;100.00;99466.16;5051026;28;20027;-73
2022/11/24 03:17:41;;;;;;;24.30;12.52;;;;;;;8.49;100.00;99462.75;5050907;28;20483;-74
2022/11/24 03:20:07;;;;;;;27.58;12.77;;;;;;;8.47;100.00;99465.25;5050798;28;20032;-74
2022/11/24 03:22:32;;;;;;;29.58;12.43;;;;;;;8.55;100.00;99494.66;5050566;28;20049;-74
2022/11/24 03:24:58;;;;;;;26.75;12.98;;;;;;;8.49;100.00;99479.03;5051080;28;20623;-74
2022/11/24 03:27:23;;;;;;;31.25;13.77;;;;;;;8.73;100.00;99499.47;5049176;28;20059;-74
2022/11/24 03:29:49;;;;;;;31.80;13.98;;;;;;;8.82;100.00;99498.88;5050391;28;20487;-74
2022/11/24 03:32:14;;;;;;;21.63;12.18;;;;;;;8.59;100.00;99475.03;5050391;28;20029;-74
2022/11/24 03:34:39;;;;;;;25.52;12.30;;;;;;;8.71;100.00;99501.13;5050395;28;20036;-74
2022/11/24 03:37:05;;;;;;;28.17;12.15;;;;;;;8.66;100.00;99499.22;5050327;28;20056;-74
2022/11/24 03:39:30;;;;;;;30.05;12.80;;;;;;;8.67;100.00;99514.75;5050283;28;20026;-74
2022/11/24 03:41:56;;;;;;;22.90;11.75;;;;;;;8.62;100.00;99507.69;5049830;28;20485;-73
2022/11/24 03:44:21;;;;;;;30.55;13.02;;;;;;;8.61;100.00;99513.66;5050434;28;20036;-74
2022/11/24 03:46:46;;;;;;;30.15;12.98;;;;;;;8.57;100.00;99508.44;5050391;28;20033;-74
2022/11/24 03:49:12;;;;;;;29.13;13.57;;;;;;;8.63;100.00;99512.03;5050204;28;20484;-74
2022/11/24 03:51:37;;;;;;;34.30;13.75;;;;;;;8.63;100.00;99509.44;5050227;28;20071;-74
2022/11/24 03:54:03;;;;;;;39.13;13.90;;;;;;;8.70;100.00;99511.38;5050020;28;20037;-75
2022/11/24 03:56:28;;;;;;;37.45;14.15;;;;;;;8.84;100.00;99520.34;5050067;28;20092;-74
2022/11/24 03:58:53;;;;;;;35.20;15.20;;;;;;;8.87;100.00;99504.13;5050594;28;20025;-74
2022/11/24 04:01:19;;;;;;;44.08;16.05;;;;;;;9.00;100.00;99520.81;5050222;28;20028;-73
2022/11/24 04:03:44;;;;;;;42.13;15.43;;;;;;;9.04;100.00;99520.03;5050090;28;20490;-74
2022/11/24 04:06:10;;;;;;;34.63;13.68;;;;;;;9.10;100.00;99522.78;5050093;28;20566;-74
2022/11/24 04:08:35;;;;;;;35.33;14.27;;;;;;;9.12;100.00;99526.28;5049955;28;20033;-74
2022/11/24 04:11:01;;;;;;;37.05;14.63;;;;;;;8.92;100.00;99481.09;5052095;28;20033;-74
2022/11/24 04:13:27;;;;;;;39.97;14.85;;;;;;;9.17;100.00;99528.97;5049974;28;20028;-74
2022/11/24 04:15:53;;;;;;;47.53;15.65;;;;;;;9.18;100.00;99531.63;5043375;28;20028;-73
2022/11/24 04:18:18;;;;;;;34.35;14.35;;;;;;;9.16;100.00;99538.41;5052978;28;20124;-74
2022/11/24 04:20:44;;;;;;;36.47;15.80;;;;;;;9.10;100.00;99535.66;5053558;28;20481;-74
2022/11/24 04:23:10;;;;;;;35.88;14.40;;;;;;;8.88;100.00;99509.34;5053222;28;20040;-74
2022/11/24 04:25:36;;;;;;;32.63;14.73;;;;;;;9.00;100.00;99543.97;5053410;28;20024;-74
2022/11/24 04:28:01;;;;;;;32.70;14.27;;;;;;;8.98;100.00;99537.91;5053476;28;20029;-74
2022/11/24 04:30:28;;;;;;;34.05;15.48;;;;;;;8.76;100.00;99505.53;5053189;28;20033;-74
2022/11/24 04:32:54;;;;;;;42.95;15.15;;;;;;;8.97;100.00;99544.75;5053299;28;20411;-74
2022/11/24 04:35:20;;;;;;;35.95;16.95;;;;;;;9.00;100.00;99546.53;5053252;28;20029;-73
2022/11/24 04:37:45;;;;;;;38.63;15.07;;;;;;;9.04;100.00;99550.94;5053161;28;20533;-74
2022/11/24 04:40:13;;;;;;;36.40;16.52;;;;;;;9.06;100.00;99533.84;5053309;28;20025;-74
2022/11/24 04:42:39;;;;;;;36.70;16.40;;;;;;;9.17;100.00;99537.59;5052962;28;20513;-74
2022/11/24 04:45:05;;;;;;;35.78;15.45;;;;;;;9.31;100.00;99550.84;5053182;28;20021;-74
2022/11/24 04:47:31;;;;;;;34.40;15.90;;;;;;;9.12;100.00;99517.69;5052916;28;20572;-74
2022/11/24 04:49:57;;;;;;;32.08;16.48;;;;;;;9.41;100.00;99558.78;5045901;28;20064;-74
2022/11/24 04:52:23;;;;;;;37.80;17.08;;;;;;;9.41;100.00;99545.91;5017625;28;20381;-74
2022/11/24 04:54:49;;;;;;;34.63;15.00;;;;;;;9.39;100.00;99544.19;5032820;28;20104;-74
2022/11/24 04:57:20;;;;;;;36.45;16.67;;;;;;;9.44;100.00;99544.28;5032647;28;20134;-74
2022/11/24 04:59:46;;;;;;;32.70;16.00;;;;;;;9.55;100.00;99560.06;5032780;28;20022;-74
2022/11/24 05:02:12;;;;;;;34.65;17.35;;;;;;;9.53;100.00;99549.72;5047819;28;20037;-74
2022/11/24 05:04:38;;;;;;;43.95;17.13;;;;;;;9.59;100.00;99563.59;5052220;28;20036;-74
2022/11/24 05:07:04;;;;;;;34.33;16.65;;;;;;;9.61;100.00;99560.22;5051744;28;20033;-74
2022/11/24 05:09:29;;;;;;;32.85;17.33;;;;;;;9.57;100.00;99555.81;5051235;28;20059;-74
2022/11/24 05:11:54;;;;;;;33.80;16.95;;;;;;;9.39;100.00;99528.75;5052315;28;20032;-74
2022/11/24 05:14:20;;;;;;;35.55;17.40;;;;;;;9.63;100.00;99573.13;5052287;28;20384;-74
2022/11/24 05:16:45;;;;;;;37.05;18.17;;;;;;;9.50;100.00;99548.75;5052202;28;20520;-74
2022/11/24 05:19:12;;;;;;;39.33;18.40;;;;;;;9.63;100.00;99578.28;5049946;28;20472;-74
2022/11/24 05:21:37;;;;;;;33.85;19.02;;;;;;;9.50;100.00;99564.22;5051322;28;20025;-74
2022/11/24 05:24:03;;;;;;;33.95;18.10;;;;;;;9.57;100.00;99578.13;5051623;28;20533;-73
2022/11/24 05:26:28;;;;;;;33.22;18.35;;;;;;;9.31;100.00;99542.22;5051487;28;20426;-73
2022/11/24 05:28:54;;;;;;;36.78;19.33;;;;;;;9.58;100.00;99585.88;5051057;28;20036;-74
2022/11/24 05:31:19;;;;;;;43.55;21.23;;;;;;;9.58;100.00;99592.75;5050637;28;20037;-74
2022/11/24 05:33:45;;;;;;;35.58;19.10;;;;;;;9.60;100.00;99591.97;5049339;28;20037;-74
2022/11/24 05:36:51;;;;;;;38.28;20.40;;;;;;;9.44;100.00;99562.34;5051031;28;20048;-74
2022/11/24 05:38:56;;;;;;;39.67;19.30;;;;;;;9.60;100.00;99604.00;5051550;28;20138;-74
2022/11/24 05:41:21;;;;;;;39.88;21.98;;;;;;;9.47;100.00;99605.34;5052102;28;20041;-74
2022/11/24 05:43:47;;;;;;;42.38;20.25;;;;;;;9.38;100.00;99596.53;5049602;28;20024;-74
2022/11/24 05:46:12;;;;;;;38.22;19.60;;;;;;;9.43;100.00;99600.94;5051627;28;20041;-73
2022/11/24 05:48:38;;;;;;;40.85;19.48;;;;;;;9.26;100.00;99580.75;5049709;28;20033;-74
2022/11/24 05:51:03;;;;;;;42.28;20.15;;;;;;;9.44;100.00;99597.53;5051575;28;20091;-73
2022/11/24 05:53:29;;;;;;;36.05;20.08;;;;;;;9.36;100.00;99569.84;5051911;28;20479;-73
2022/11/24 05:55:54;;;;;;;42.15;20.73;;;;;;;9.61;100.00;99604.03;5051435;28;20139;-73
2022/11/24 05:58:19;;;;;;;39.53;20.55;;;;;;;9.39;100.00;99564.81;5051671;28;20112;-73
2022/11/24 06:00:45;;;;;;;41.00;22.38;;;;;;;9.68;100.00;99610.19;5051581;28;20790;-73
2022/11/24 06:03:11;;;;;;;41.22;22.98;;;;;;;9.73;100.00;99615.47;5051348;28;20033;-73
2022/11/24 06:05:37;;;;;;;34.92;22.13;;;;;;;9.60;100.00;99585.94;5051679;28;20086;-74
2022/11/24 06:08:02;;;;;;;41.15;22.88;;;;;;;9.62;100.00;99586.84;5051530;28;20491;-74
2022/11/24 06:10:28;;;;;;;40.38;21.98;;;;;;;9.80;100.00;99633.72;5050158;28;20033;-74
2022/11/24 06:12:54;;;;;;;42.70;22.05;;;;;;;9.77;100.00;99631.09;5051402;28;20041;-73
2022/11/24 06:15:20;;;;;;;41.28;21.10;;;;;;;9.78;100.00;99634.53;5051257;28;20091;-73
2022/11/24 06:17:53;;;;;;;42.03;21.42;;;;;;;9.75;100.00;99635.31;5051076;28;20032;-74
2022/11/24 06:20:19;;;;;;;42.25;22.25;;;;;;;9.73;100.00;99638.69;5051432;28;20498;-74
2022/11/24 06:22:44;;;;;;;44.28;22.75;;;;;;;9.74;100.00;99638.72;5051229;28;20065;-74
2022/11/24 06:25:09;;;;;;;42.63;22.60;;;;;;;9.70;100.00;99627.44;5051145;28;20490;-73
2022/11/24 06:27:35;;;;;;;40.17;20.27;;;;;;;9.80;100.00;99638.03;5051397;28;20035;-74
2022/11/24 06:30:00;;;;;;;43.45;21.80;;;;;;;9.81;100.00;99642.34;5033056;28;20456;-74
2022/11/24 06:32:26;;;;;;;39.45;23.35;;;;;;;9.84;100.00;99653.63;5051163;28;20036;-74
2022/11/24 06:34:51;;;;;;;42.13;21.52;;;;;;;9.86;100.00;99654.50;5050773;28;20036;-73
2022/11/24 06:37:17;;;;;;;37.97;21.35;;;;;;;9.77;100.00;99648.22;5050814;28;20060;-74
2022/11/24 06:39:42;;;;;;;40.95;22.63;;;;;;;9.81;100.00;99650.09;5049577;28;20029;-73
2022/11/24 06:42:08;;;;;;;41.30;23.88;;;;;;;9.74;100.00;99648.16;5050729;28;20033;-73
2022/11/24 06:44:33;;;;;;;50.28;26.23;;;;;;;9.63;100.00;99619.50;5050545;28;20029;-74
2022/11/24 06:46:59;;;;;;;45.50;24.65;;;;;;;9.90;100.00;99660.63;5050600;28;20055;-73
2022/11/24 06:49:24;;;;;;;49.97;27.25;;;;;;;9.92;100.00;99647.75;5050769;28;20449;-73
2022/11/24 06:51:50;;;;;;;45.13;26.52;;;;;;;9.97;100.00;99659.97;5050648;28;20456;-73
2022/11/24 06:54:17;;;;;;;52.58;29.20;;;;;;;10.05;100.00;99660.16;5050689;28;20040;-73
2022/11/24 06:56:42;;;;;;;50.40;30.45;;;;;;;10.10;100.00;99650.81;5050625;28;20032;-74
2022/11/24 06:59:16;;;;;;;48.38;30.58;;;;;;;10.10;100.00;99655.13;5050555;28;20025;-73
2022/11/24 07:01:41;;;;;;;49.85;30.13;;;;;;;10.06;100.00;99654.16;5050716;28;20095;-73
2022/11/24 07:04:07;;;;;;;52.28;31.98;;;;;;;9.84;100.00;99626.94;5050625;28;20057;-73
2022/11/24 07:06:32;;;;;;;54.10;32.38;;;;;;;10.05;100.00;99660.16;5050749;28;20040;-73
2022/11/24 07:08:58;;;;;;;57.67;32.95;;;;;;;10.12;100.00;99667.22;5033587;28;20030;-73
2022/11/24 07:11:23;;;;;;;52.63;31.88;;;;;;;10.11;100.00;99656.88;5032003;28;20033;-74
2022/11/24 07:13:50;;;;;;;63.60;34.92;;;;;;;10.25;100.00;99670.13;5030804;28;20043;-73
2022/11/24 07:16:20;;;;;;;54.53;33.53;;;;;;;10.23;100.00;99649.44;5040866;28;20479;-73
2022/11/24 07:18:47;;;;;;;62.15;33.35;;;;;;;10.28;100.00;99655.59;5050332;28;20473;-72
2022/11/24 07:21:13;;;;;;;54.50;32.72;;;;;;;10.33;100.00;99668.59;5032425;28;20029;-73
2022/11/24 07:23:38;;;;;;;60.47;35.95;;;;;;;10.30;100.00;99666.81;5050370;28;20075;-73
2022/11/24 07:26:06;;;;;;;58.75;34.33;;;;;;;10.28;100.00;99655.59;5050378;28;20112;-73
2022/11/24 07:28:32;;;;;;;65.60;36.60;;;;;;;10.25;100.00;99657.22;5050139;28;20049;-73
2022/11/24 07:30:58;;;;;;;64.57;37.20;;;;;;;10.28;100.00;99663.34;5050318;28;20111;-73
2022/11/24 07:33:25;;;;;;;60.53;37.72;;;;;;;10.33;100.00;99668.59;5050300;28;20116;-73
2022/11/24 07:35:53;;;;;;;66.95;38.20;;;;;;;10.15;100.00;99635.47;5048873;28;20429;-73
2022/11/24 07:38:19;;;;;;;69.25;37.53;;;;;;;10.17;100.00;99641.56;5049875;28;20057;-73
2022/11/24 07:40:45;;;;;;;60.95;36.92;;;;;;;10.14;100.00;99642.34;5050077;28;20556;-73
2022/11/24 07:43:10;;;;;;;57.55;36.42;;;;;;;10.24;100.00;99655.47;5049898;28;20112;-73
2022/11/24 07:45:36;;;;;;;53.30;35.03;;;;;;;10.29;100.00;99659.03;5051493;28;20035;-73
2022/11/24 07:48:01;;;;;;;60.83;36.08;;;;;;;10.35;100.00;99665.25;5018716;28;20065;-73
2022/11/24 07:50:27;;;;;;;63.50;37.97;;;;;;;10.38;100.00;99677.38;5054299;28;20646;-73
2022/11/24 07:52:52;;;;;;;62.60;35.58;;;;;;;10.25;100.00;99642.59;5053996;28;20501;-73
2022/11/24 07:55:18;;;;;;;61.75;37.65;;;;;;;10.45;100.00;99671.50;5053934;28;20027;-73
2022/11/24 07:57:43;;;;;;;64.10;39.63;;;;;;;10.45;100.00;99686.13;5053857;28;20029;-73
2022/11/24 08:00:10;;;;;;;61.97;38.90;;;;;;;10.45;100.00;99686.97;5053904;28;20033;-73
2022/11/24 08:02:35;;;;;;;61.90;38.50;;;;;;;10.44;100.00;99680.09;5053840;28;20392;-73
2022/11/24 08:05:00;;;;;;;53.83;35.03;;;;;;;10.48;100.00;99679.34;5053945;28;20095;-73
2022/11/24 08:07:26;;;;;;;61.90;38.45;;;;;;;10.47;100.00;99685.31;5053824;28;20471;-73
2022/11/24 08:09:51;;;;;;;52.72;34.25;;;;;;;10.56;100.00;99683.81;5053457;28;20120;-73
2022/11/24 08:12:20;;;;;;;52.97;31.60;;;;;;;10.50;100.00;99684.53;5053442;28;20029;-73
2022/11/24 08:14:49;;;;;;;49.67;32.10;;;;;;;10.48;100.00;99668.13;5053651;28;20044;-73
2022/11/24 08:17:16;;;;;;;51.65;32.38;;;;;;;10.51;100.00;99669.06;5053651;28;20086;-73
2022/11/24 08:19:42;;;;;;;50.63;30.42;;;;;;;10.59;100.00;99673.56;5053635;28;20025;-73
2022/11/24 08:22:07;;;;;;;42.72;29.65;;;;;;;10.59;100.00;99682.19;5053632;28;20025;-73
2022/11/24 08:24:32;;;;;;;46.90;29.73;;;;;;;10.50;100.00;99682.84;5053365;28;20032;-73
2022/11/24 08:26:58;;;;;;;45.88;30.38;;;;;;;10.22;100.00;99649.38;5053260;28;20021;-73
2022/11/24 08:29:28;;;;;;;43.92;29.50;;;;;;;10.39;100.00;99673.94;5053760;28;20541;-73
2022/11/24 08:31:56;;;;;;;49.92;33.13;;;;;;;10.46;100.00;99677.56;5034378;28;20037;-73
2022/11/24 08:34:22;;;;;;;41.22;28.73;;;;;;;10.36;100.00;99673.88;5053231;28;20036;-72
2022/11/24 08:36:47;;;;;;;40.50;27.65;;;;;;;10.34;100.00;99672.91;5053220;28;20471;-73
2022/11/24 08:39:13;;;;;;;39.75;27.98;;;;;;;10.24;100.00;99634.84;5051683;28;20032;-72
2022/11/24 08:41:38;;;;;;;50.10;36.38;;;;;;;10.56;100.00;99671.78;5052992;28;20024;-73
2022/11/24 08:44:04;;;;;;;54.90;29.90;;;;;;;10.44;100.00;99643.97;5053199;28;20029;-73
2022/11/24 08:46:29;;;;;;;37.95;26.20;;;;;;;10.47;100.00;99640.59;5052971;28;20017;-73
2022/11/24 08:48:55;;;;;;;43.38;25.67;;;;;;;10.79;100.00;99681.75;5050517;28;20029;-73
2022/11/24 08:51:24;;;;;;;41.67;25.52;;;;;;;10.86;100.00;99678.50;5022463;28;20044;-73
2022/11/24 08:53:59;;;;;;;43.60;25.42;;;;;;;10.91;100.00;99679.47;5044270;28;20111;-73
2022/11/24 08:56:26;;;;;;;34.83;23.40;;;;;;;10.98;100.00;99688.25;5052263;28;20107;-72
2022/11/24 08:58:52;;;;;;;35.70;24.48;;;;;;;11.00;100.00;99682.28;5052425;28;20029;-79
2022/11/24 09:01:18;;;;;;;34.15;23.13;;;;;;;11.09;100.00;99684.19;5052694;28;20029;-73
2022/11/24 09:03:46;;;;;;;32.95;22.95;;;;;;;11.11;100.00;99677.31;5052337;28;20040;-73
2022/11/24 09:06:12;;;;;;;34.08;23.73;;;;;;;11.13;100.00;99688.56;5049983;28;20029;-73
2022/11/24 09:08:37;;;;;;;29.70;22.00;;;;;;;11.19;100.00;99674.03;5051859;28;20108;-73
2022/11/24 09:11:15;;;;;;;37.60;24.92;;;;;;;11.16;100.00;99638.69;5049512;28;20033;-71
2022/11/24 09:13:40;;;;;;;29.33;22.90;;;;;;;11.46;100.00;99666.00;5032786;28;20108;-72
2022/11/24 09:16:15;;;;;;;39.22;23.10;;;;;;;11.64;100.00;99674.13;5031226;28;20121;-75
2022/11/24 09:18:41;;;;;;;27.42;20.48;;;;;;;11.70;100.00;99673.38;5033431;28;20030;-75
2022/11/24 09:21:08;;;;;;;29.15;20.13;;;;;;;11.64;100.00;99675.84;5034400;28;20063;-73
2022/11/24 09:23:34;;;;;;;34.08;21.17;;;;;;;11.51;100.00;99655.75;5032485;28;20040;-72
2022/11/24 09:26:09;;;;;;;28.88;20.58;;;;;;;11.52;100.00;99673.03;5034090;28;20079;-73
2022/11/24 09:28:34;;;;;;;24.98;19.33;;;;;;;11.24;100.00;99659.50;5048115;28;20062;-74
2022/11/24 09:31:02;;;;;;;26.23;19.70;;;;;;;11.22;100.00;99666.38;5031780;28;20029;-74
2022/11/24 09:33:28;;;;;;;28.27;19.63;;;;;;;11.03;100.00;99622.06;5051084;28;20047;-74
2022/11/24 09:35:54;;;;;;;28.98;20.17;;;;;;;11.27;100.00;99664.75;5051624;28;20103;-73
2022/11/24 09:38:19;;;;;;;26.10;20.33;;;;;;;11.28;100.00;99638.09;5033561;28;20136;-74
2022/11/24 09:40:45;;;;;;;28.10;20.02;;;;;;;11.41;100.00;99640.06;5051283;28;20032;-72
2022/11/24 09:43:17;;;;;;;28.60;18.55;;;;;;;11.32;100.00;99638.16;5035250;28;20048;-73
2022/11/24 09:45:59;;;;;;;24.50;18.48;;;;;;;11.33;100.00;99608.03;5035019;28;20030;-71
2022/11/24 09:48:41;;;;;;;32.35;19.63;;;;;;;11.58;100.00;99642.13;5030566;28;20180;-71
2022/11/24 09:51:11;;;;;;;27.77;18.98;;;;;;;11.78;100.00;99638.19;5032629;28;20021;-71
2022/11/24 09:53:44;;;;;;;25.23;18.20;;;;;;;11.82;100.00;99640.00;5030629;28;20037;-72
2022/11/24 09:56:27;;;;;;;26.77;20.15;;;;;;;11.90;100.00;99644.41;5030801;28;20026;-73
2022/11/24 09:59:31;;;;;;;27.17;18.55;;;;;;;11.80;100.00;99643.38;5040032;28;20037;-72
2022/11/24 10:01:59;;;;;;;22.73;16.23;;;;;;;11.60;100.00;99645.59;4950063;28;20498;-71
2022/11/24 10:04:31;;;;;;;23.20;16.50;;;;;;;11.61;100.00;99644.75;4957050;28;20038;-73
2022/11/24 10:07:29;;;;;;;23.80;17.65;;;;;;;11.68;100.00;99638.84;4968068;28;20026;-71
2022/11/24 10:10:18;;;;;;;29.02;18.20;;;;;;;11.62;100.00;99634.44;4957865;28;20069;-76
2022/11/24 10:13:15;;;;;;;22.70;16.13;;;;;;;11.63;100.00;99628.41;4969570;28;20061;-70
2022/11/24 10:16:07;;;;;;;24.35;14.88;;;;;;;11.86;100.00;99629.69;4969665;28;20130;-73
2022/11/24 10:18:35;;;;;;;24.15;15.90;;;;;;;12.17;100.00;99633.72;4969653;28;20035;-70
2022/11/24 10:21:04;;;;;;;26.33;15.45;;;;;;;12.40;100.00;99623.75;4969557;28;20489;-72
2022/11/24 10:23:43;;;;;;;23.40;15.63;;;;;;;12.57;100.00;99624.03;4954718;28;20034;-75
2022/11/24 10:26:31;;;;;;;24.27;17.30;;;;;;;12.61;100.00;99615.44;4950876;28;20047;-74
2022/11/24 10:28:56;;;;;;;21.40;15.75;;;;;;;12.87;100.00;99620.13;4950665;28;20506;-75
2022/11/24 10:31:41;;;;;;;20.08;13.93;;;;;;;13.01;100.00;99603.88;4955259;28;20046;-74
2022/11/24 10:34:14;;;;;;;23.08;15.30;;;;;;;13.34;100.00;99605.16;5030349;28;20104;-72
2022/11/24 10:37:07;;;;;;;19.42;12.52;;;;;;;13.34;100.00;99620.72;5030320;28;20400;-71
2022/11/24 10:39:39;;;;;;;23.38;14.57;;;;;;;13.30;100.00;99624.16;5030271;28;20116;-70
2022/11/24 10:42:25;;;;;;;16.38;12.43;;;;;;;13.11;100.00;99614.41;5030470;28;20023;-71
2022/11/24 10:45:00;;;;;;;22.10;14.13;;;;;;;12.98;100.00;99619.41;5030298;28;20057;-71
2022/11/24 10:47:26;;;;;;;26.77;15.73;;;;;;;12.90;100.00;99611.53;5029959;28;20029;-72
2022/11/24 10:50:21;;;;;;;24.20;16.35;;;;;;;12.94;100.00;99614.16;5012166;28;20033;-73
2022/11/24 10:53:24;;;;;;;19.60;13.38;;;;;;;12.98;100.00;99617.69;5029948;28;20041;-72
2022/11/24 10:55:56;;;;;;;17.95;11.23;;;;;;;13.03;100.00;99610.81;5036756;28;20037;-70
2022/11/24 10:58:22;;;;;;;14.23;9.65;;;;;;;13.02;100.00;99611.69;5037157;28;20057;-69
2022/11/24 11:00:48;;;;;;;15.40;9.70;;;;;;;13.22;100.00;99627.50;5048171;28;20024;-69
2022/11/24 11:03:20;;;;;;;14.57;10.27;;;;;;;13.33;100.00;99606.88;5049832;28;20051;-72
2022/11/24 11:05:51;;;;;;;15.98;10.82;;;;;;;13.39;100.00;99614.75;5049869;28;20112;-72
2022/11/24 11:08:18;;;;;;;16.17;9.50;;;;;;;13.42;100.00;99612.22;5042145;28;20033;-70
2022/11/24 11:10:45;;;;;;;14.00;9.90;;;;;;;13.62;100.00;99608.09;5043562;28;20112;-72
2022/11/24 11:13:21;;;;;;;12.32;8.50;;;;;;;13.74;100.00;99597.84;5049738;28;20032;-73
2022/11/24 11:15:46;;;;;;;12.88;9.13;;;;;;;13.83;100.00;99592.78;5049919;28;20848;-72
2022/11/24 11:18:16;;;;;;;12.60;8.63;;;;;;;13.94;100.00;99579.00;5049070;28;20017;-73
2022/11/24 11:20:55;;;;;;;14.27;9.95;;;;;;;14.26;100.00;99604.38;5049197;28;20052;-73
2022/11/24 11:23:29;;;;;;;15.10;10.60;;;;;;;14.28;100.00;99602.66;5032602;28;20029;-73